createdAt,value
2018-08-09T00:01:53.020Z,101140.35
2018-08-09T00:04:21.953Z,101145.58
2018-08-09T00:06:51.780Z,101148.38
2018-08-09T00:09:21.443Z,101146.88
2018-08-09T00:11:51.716Z,101144.12
2018-08-09T00:14:21.953Z,101137.00
2018-08-09T00:16:51.005Z,101137.69
2018-08-09T00:19:20.912Z,101133.36
2018-08-09T00:21:49.760Z,101127.98
2018-08-09T00:24:19.406Z,101132.81
2018-08-09T00:26:52.764Z,101130.33
2018-08-09T00:29:22.414Z,101138.32
2018-08-09T00:31:52.082Z,101133.55
2018-08-09T00:34:22.342Z,101131.63
2018-08-09T00:36:53.147Z,101130.44
2018-08-09T00:39:22.081Z,101136.41
2018-08-09T00:41:51.012Z,101131.64
2018-08-09T00:44:20.019Z,101133.38
2018-08-09T00:46:49.770Z,101134.05
2018-08-09T00:49:19.495Z,101135.91
2018-08-09T00:51:48.416Z,101135.23
2018-08-09T00:54:17.296Z,101137.28
2018-08-09T00:56:46.259Z,101128.20
2018-08-09T00:59:15.823Z,101121.52
2018-08-09T01:01:44.729Z,101119.22
2018-08-09T01:04:13.837Z,101128.84
2018-08-09T01:06:43.428Z,101130.02
2018-08-09T01:09:15.286Z,101136.27
2018-08-09T01:11:44.489Z,101134.98
2018-08-09T01:14:13.449Z,101132.47
2018-08-09T01:16:42.390Z,101136.94
2018-08-09T01:19:11.371Z,101133.73
2018-08-09T01:21:40.428Z,101132.68
2018-08-09T01:24:09.428Z,101135.02
2018-08-09T01:26:38.326Z,101129.14
2018-08-09T01:29:07.365Z,101127.95
2018-08-09T01:31:38.400Z,101126.62
2018-08-09T01:34:08.723Z,101122.78
2018-08-09T01:36:38.885Z,101126.07
2018-08-09T01:39:09.440Z,101134.53
2018-08-09T01:41:38.390Z,101133.45
2018-08-09T01:44:07.898Z,101140.92
2018-08-09T01:46:36.867Z,101133.13
2018-08-09T01:49:05.916Z,101136.77
2018-08-09T01:51:34.921Z,101134.98
2018-08-09T01:54:04.222Z,101132.30
2018-08-09T01:56:33.355Z,101142.11
2018-08-09T01:59:02.314Z,101135.29
2018-08-09T02:01:31.490Z,101143.80
2018-08-09T02:04:00.517Z,101136.86
2018-08-09T02:06:29.505Z,101136.13
2018-08-09T02:09:02.782Z,101137.84
2018-08-09T02:11:31.714Z,101149.21
2018-08-09T02:14:00.795Z,101145.55
2018-08-09T02:16:29.788Z,101150.38
2018-08-09T02:18:58.667Z,101145.06
2018-08-09T02:21:27.670Z,101150.88
2018-08-09T02:23:56.800Z,101148.83
2018-08-09T02:26:25.739Z,101146.95
2018-08-09T02:28:55.579Z,101147.47
2018-08-09T02:31:24.473Z,101151.90
2018-08-09T02:33:53.375Z,101148.89
2018-08-09T02:36:23.040Z,101142.58
2018-08-09T02:38:52.283Z,101143.40
2018-08-09T02:41:21.492Z,101142.13
2018-08-09T02:43:50.614Z,101148.16
2018-08-09T02:46:19.561Z,101139.77
2018-08-09T02:48:48.975Z,101140.21
2018-08-09T02:51:18.051Z,101136.17
2018-08-09T02:53:47.076Z,101140.40
2018-08-09T02:56:15.975Z,101144.13
2018-08-09T02:58:44.965Z,101146.70
2018-08-09T03:01:13.985Z,101158.64
2018-08-09T03:03:43.001Z,101161.80
2018-08-09T03:06:12.788Z,101158.82
2018-08-09T03:08:41.988Z,101166.27
2018-08-09T03:11:11.648Z,101168.05
2018-08-09T03:13:40.724Z,101167.59
2018-08-09T03:16:09.588Z,101173.80
2018-08-09T03:18:39.743Z,101171.38
2018-08-09T03:21:08.824Z,101178.19
2018-08-09T03:23:37.924Z,101181.59
2018-08-09T03:26:06.913Z,101177.45
2018-08-09T03:28:37.363Z,101178.66
2018-08-09T03:31:06.420Z,101178.48
2018-08-09T03:33:35.471Z,101180.27
2018-08-09T03:36:05.487Z,101168.58
2018-08-09T03:38:34.733Z,101176.73
2018-08-09T03:41:03.847Z,101181.41
2018-08-09T03:43:32.933Z,101176.27
2018-08-09T03:46:01.807Z,101180.84
2018-08-09T03:48:30.939Z,101172.69
2018-08-09T03:51:00.020Z,101166.94
2018-08-09T03:53:29.164Z,101164.59
2018-08-09T03:55:58.211Z,101166.22
2018-08-09T03:58:27.382Z,101169.05
2018-08-09T04:00:56.378Z,101173.52
2018-08-09T04:03:25.528Z,101169.83
2018-08-09T04:05:54.655Z,101174.58
2018-08-09T04:08:23.652Z,101180.58
2018-08-09T04:10:52.690Z,101182.53
2018-08-09T04:13:21.811Z,101172.68
2018-08-09T04:15:51.617Z,101178.58
2018-08-09T04:18:20.766Z,101166.14
2018-08-09T04:20:49.852Z,101164.91
2018-08-09T04:23:18.985Z,101168.79
2018-08-09T04:25:48.165Z,101171.89
2018-08-09T04:28:17.200Z,101167.66
2018-08-09T04:30:46.088Z,101171.64
2018-08-09T04:33:15.231Z,101172.97
2018-08-09T04:35:44.570Z,101170.89
2018-08-09T04:38:13.804Z,101163.58
2018-08-09T04:40:43.721Z,101165.27
2018-08-09T04:43:12.719Z,101168.02
2018-08-09T04:45:41.691Z,101165.81
2018-08-09T04:48:10.812Z,101177.56
2018-08-09T04:50:39.733Z,101178.73
2018-08-09T04:53:08.679Z,101184.68
2018-08-09T04:55:37.732Z,101184.68
2018-08-09T04:58:07.057Z,101180.12
2018-08-09T05:00:35.974Z,101181.08
2018-08-09T05:03:05.245Z,101191.58
2018-08-09T05:05:34.125Z,101196.03
2018-08-09T05:08:03.652Z,101192.14
2018-08-09T05:10:32.745Z,101195.83
2018-08-09T05:13:01.725Z,101193.06
2018-08-09T05:15:30.840Z,101193.89
2018-08-09T05:17:59.766Z,101190.50
2018-08-09T05:20:28.864Z,101195.18
2018-08-09T05:22:57.978Z,101190.75
2018-08-09T05:25:27.009Z,101184.27
2018-08-09T05:27:56.045Z,101185.02
2018-08-09T05:30:25.013Z,101187.39
2018-08-09T05:32:53.969Z,101185.01
2018-08-09T05:35:23.033Z,101183.69
2018-08-09T05:37:52.061Z,101182.94
2018-08-09T05:40:21.040Z,101184.30
2018-08-09T05:42:50.015Z,101182.41
2018-08-09T05:45:18.988Z,101172.51
2018-08-09T05:47:48.047Z,101182.41
2018-08-09T05:50:17.077Z,101177.89
2018-08-09T05:52:46.009Z,101182.49
2018-08-09T05:55:14.965Z,101176.84
2018-08-09T05:57:44.165Z,101187.62
2018-08-09T06:00:14.333Z,101183.95
2018-08-09T06:02:50.402Z,101178.30
2018-08-09T06:05:20.621Z,101174.66
2018-08-09T06:07:51.733Z,101181.08
2018-08-09T06:10:20.922Z,101184.28
2018-08-09T06:12:49.935Z,101186.73
2018-08-09T06:15:18.974Z,101188.99
2018-08-09T06:17:47.919Z,101193.58
2018-08-09T06:20:16.860Z,101202.91
2018-08-09T06:22:46.706Z,101198.81
2018-08-09T06:25:17.575Z,101198.38
2018-08-09T06:27:48.642Z,101196.51
2018-08-09T06:30:37.284Z,101195.77
2018-08-09T06:33:41.772Z,101191.89
2018-08-09T06:39:37.391Z,101183.32
2018-08-09T06:42:09.138Z,101183.62
2018-08-09T06:44:38.075Z,101185.28
2018-08-09T06:47:07.062Z,101183.13
2018-08-09T06:49:35.964Z,101182.20
2018-08-09T06:52:05.028Z,101190.86
2018-08-09T06:54:34.072Z,101180.41
2018-08-09T06:57:04.269Z,101183.66
2018-08-09T06:59:33.279Z,101180.03
2018-08-09T07:02:03.016Z,101180.45
2018-08-09T07:04:31.939Z,101182.41
2018-08-09T07:07:00.913Z,101176.04
2018-08-09T07:09:29.781Z,101179.39
2018-08-09T07:11:58.901Z,101179.81
2018-08-09T07:14:27.803Z,101177.45
2018-08-09T07:16:56.762Z,101177.97
2018-08-09T07:19:25.754Z,101180.34
2018-08-09T07:21:54.713Z,101176.64
2018-08-09T07:24:23.600Z,101178.62
2018-08-09T07:26:52.733Z,101172.41
2018-08-09T07:29:21.616Z,101178.50
2018-08-09T07:31:50.629Z,101174.43
2018-08-09T07:34:19.599Z,101173.97
2018-08-09T07:36:48.714Z,101167.52
2018-08-09T07:39:17.625Z,101170.50
2018-08-09T07:41:46.543Z,101173.67
2018-08-09T07:44:15.426Z,101174.55
2018-08-09T07:46:44.437Z,101163.52
2018-08-09T07:49:13.882Z,101171.05
2018-08-09T07:51:43.060Z,101164.77
2018-08-09T07:54:12.125Z,101168.99
2018-08-09T07:56:41.081Z,101165.07
2018-08-09T07:59:11.127Z,101166.83
2018-08-09T08:01:40.073Z,101156.09
2018-08-09T08:04:09.120Z,101149.98
2018-08-09T08:06:42.913Z,101146.84
2018-08-09T08:09:15.420Z,101138.92
2018-08-09T08:11:45.575Z,101143.03
2018-08-09T08:14:15.920Z,101142.00
2018-08-09T08:16:47.995Z,101134.09
2018-08-09T08:19:18.220Z,101132.74
2018-08-09T08:21:53.039Z,101133.19
2018-08-09T08:24:23.428Z,101128.59
2018-08-09T08:26:55.756Z,101125.24
2018-08-09T08:29:29.936Z,101119.22
2018-08-09T08:32:00.493Z,101120.58
2018-08-09T08:34:30.407Z,101122.35
2018-08-09T08:37:00.138Z,101119.70
2018-08-09T08:39:30.597Z,101113.27
2018-08-09T08:42:01.921Z,101113.30
2018-08-09T08:44:45.385Z,101109.67
2018-08-09T08:47:25.756Z,101109.59
2018-08-09T08:49:56.267Z,101102.14
2018-08-09T08:52:28.141Z,101098.02
2018-08-09T08:54:57.173Z,101092.77
2018-08-09T08:57:29.370Z,101089.61
2018-08-09T08:59:58.507Z,101086.38
2018-08-09T09:02:27.594Z,101081.61
2018-08-09T09:04:56.591Z,101081.37
2018-08-09T09:07:26.797Z,101080.05
2018-08-09T09:10:27.469Z,101085.41
2018-08-09T09:12:57.894Z,101084.67
2018-08-09T09:15:26.769Z,101086.47
2018-08-09T09:17:55.664Z,101084.43
2018-08-09T09:20:24.613Z,101080.30
2018-08-09T09:22:53.593Z,101072.79
2018-08-09T09:25:22.625Z,101068.34
2018-08-09T09:27:51.708Z,101076.27
2018-08-09T09:30:20.626Z,101075.76
2018-08-09T09:32:49.508Z,101075.70
2018-08-09T09:35:18.611Z,101071.42
2018-08-09T09:37:47.712Z,101063.19
2018-08-09T09:40:16.620Z,101058.03
2018-08-09T09:42:46.242Z,101056.51
2018-08-09T09:45:15.145Z,101051.34
2018-08-09T09:47:44.135Z,101060.92
2018-08-09T09:50:13.995Z,101052.76
2018-08-09T09:52:44.060Z,101045.29
2018-08-09T09:55:12.977Z,101036.10
2018-08-09T09:57:41.924Z,101030.48
2018-08-09T10:00:15.999Z,101024.66
2018-08-09T10:02:46.332Z,101023.48
2018-08-09T10:05:15.983Z,101026.75
2018-08-09T10:07:44.932Z,101028.08
2018-08-09T10:10:13.931Z,101024.16
2018-08-09T10:12:43.823Z,101016.66
2018-08-09T10:15:13.217Z,101013.60
2018-08-09T10:17:42.286Z,101005.02
2018-08-09T10:20:12.028Z,101002.52
2018-08-09T10:22:40.933Z,101000.34
2018-08-09T10:25:09.911Z,100991.45
2018-08-09T10:27:38.973Z,100993.34
2018-08-09T10:30:08.354Z,100989.23
2018-08-09T10:32:38.013Z,100986.60
2018-08-09T10:35:06.940Z,100990.56
2018-08-09T10:37:36.012Z,100985.98
2018-08-09T10:40:05.365Z,100973.14
2018-08-09T10:42:34.295Z,100966.25
2018-08-09T10:45:03.219Z,100966.89
2018-08-09T10:47:32.283Z,100962.45
2018-08-09T10:50:01.733Z,100959.91
2018-08-09T10:52:30.670Z,100951.44
2018-08-09T10:54:59.679Z,100948.29
2018-08-09T10:57:28.660Z,100948.41
2018-08-09T10:59:59.094Z,100952.46
2018-08-09T11:02:28.145Z,100954.98
2018-08-09T11:04:57.661Z,100943.48
2018-08-09T11:07:26.638Z,100940.61
2018-08-09T11:09:55.794Z,100937.83
2018-08-09T11:12:25.017Z,100931.41
2018-08-09T11:14:53.928Z,100924.41
2018-08-09T11:17:22.865Z,100913.12
2018-08-09T11:19:51.820Z,100928.98
2018-08-09T11:22:20.851Z,100921.53
2018-08-09T11:24:50.132Z,100916.84
2018-08-09T11:27:19.356Z,100916.48
2018-08-09T11:29:48.460Z,100914.64
2018-08-09T11:32:17.559Z,100901.50
2018-08-09T11:34:46.449Z,100901.77
2018-08-09T11:37:15.478Z,100890.02
2018-08-09T11:39:44.557Z,100882.34
2018-08-09T11:42:13.456Z,100874.99
2018-08-09T11:44:42.403Z,100871.95
2018-08-09T11:47:12.334Z,100860.44
2018-08-09T11:49:41.425Z,100860.81
2018-08-09T11:52:13.722Z,100853.47
2018-08-09T11:54:43.771Z,100848.03
2018-08-09T11:57:14.589Z,100836.95
2018-08-09T11:59:49.994Z,100823.53
2018-08-09T12:02:22.637Z,100815.63
2018-08-09T12:04:53.336Z,100815.86
2018-08-09T12:07:35.544Z,100804.94
2018-08-09T12:10:08.437Z,100796.14
2018-08-09T12:12:43.082Z,100798.59
2018-08-09T12:15:15.640Z,100795.44
2018-08-09T12:17:46.083Z,100785.65
2018-08-09T12:20:19.676Z,100780.55
2018-08-09T12:23:02.267Z,100781.98
2018-08-09T12:25:42.216Z,100775.62
2018-08-09T12:28:14.652Z,100767.72
2018-08-09T12:30:45.036Z,100760.89
2018-08-09T12:33:37.036Z,100757.69
2018-08-09T12:36:10.459Z,100767.52
2018-08-09T12:38:48.766Z,100754.29
2018-08-09T12:41:23.480Z,100756.66
2018-08-09T12:44:12.194Z,100736.61
2018-08-09T12:54:40.307Z,100729.23
2018-08-09T13:00:16.177Z,100704.97
2018-08-09T13:08:47.836Z,100691.41
2018-08-09T13:19:31.588Z,100667.00
2018-08-09T13:33:17.031Z,100656.09
2018-08-09T13:38:36.872Z,100637.86
2018-08-09T13:41:05.844Z,100636.80
2018-08-09T13:43:34.722Z,100639.00
2018-08-09T13:46:03.777Z,100635.52
2018-08-09T13:48:32.899Z,100636.66
2018-08-09T13:51:01.858Z,100615.38
2018-08-09T13:53:30.869Z,100614.70
2018-08-09T13:55:59.803Z,100611.72
2018-08-09T13:58:28.899Z,100595.75
2018-08-09T14:00:58.281Z,100585.20
2018-08-09T14:03:27.259Z,100585.67
2018-08-09T14:06:03.075Z,100583.34
2018-08-09T14:08:33.098Z,100581.89
2018-08-09T14:11:02.005Z,100567.25
2018-08-09T14:13:31.106Z,100556.43
2018-08-09T14:16:00.087Z,100550.52
2018-08-09T14:18:30.043Z,100547.48
2018-08-09T14:21:00.668Z,100545.61
2018-08-09T14:23:29.672Z,100542.42
2018-08-09T14:25:58.570Z,100541.84
2018-08-09T14:28:28.299Z,100530.44
2018-08-09T14:31:07.027Z,100526.19
2018-08-09T14:33:36.073Z,100524.03
2018-08-09T14:36:04.970Z,100516.10
2018-08-09T14:38:34.071Z,100505.92
2018-08-09T14:41:04.086Z,100502.45
2018-08-09T14:43:33.125Z,100488.34
2018-08-09T14:46:02.082Z,100483.16
2018-08-09T14:48:31.005Z,100475.61
2018-08-09T14:51:00.067Z,100459.37
2018-08-09T14:53:29.061Z,100449.25
2018-08-09T14:55:58.088Z,100439.61
2018-08-09T14:58:27.884Z,100440.44
2018-08-09T15:00:56.920Z,100430.36
2018-08-09T15:03:25.850Z,100426.77
2018-08-09T15:05:55.786Z,100420.86
2018-08-09T15:08:24.754Z,100406.31
2018-08-09T15:10:53.704Z,100404.55
2018-08-09T15:13:29.425Z,100403.43
2018-08-09T15:15:58.362Z,100411.42
2018-08-09T15:18:33.080Z,100403.10
2018-08-09T15:21:02.167Z,100406.45
2018-08-09T15:23:32.296Z,100403.44
2018-08-09T15:26:01.439Z,100408.78
2018-08-09T15:28:31.781Z,100407.84
2018-08-09T15:31:00.743Z,100401.61
2018-08-09T15:33:30.880Z,100398.83
2018-08-09T15:36:00.972Z,100394.20
2018-08-09T15:38:30.025Z,100385.72
2018-08-09T15:40:59.065Z,100381.09
2018-08-09T15:43:28.023Z,100371.03
2018-08-09T15:45:57.060Z,100359.02
2018-08-09T15:48:27.117Z,100348.91
2018-08-09T15:50:56.121Z,100340.80
2018-08-09T15:53:25.049Z,100332.33
2018-08-09T15:55:54.031Z,100325.52
2018-08-09T15:58:22.918Z,100311.57
2018-08-09T16:00:51.869Z,100315.81
2018-08-09T16:03:20.836Z,100292.58
2018-08-09T16:05:50.388Z,100289.40
2018-08-09T16:08:19.460Z,100278.02
2018-08-09T16:10:48.807Z,100265.91
2018-08-09T16:13:17.891Z,100263.75
2018-08-09T16:15:47.179Z,100265.52
2018-08-09T16:18:16.293Z,100261.75
2018-08-09T16:20:46.357Z,100255.16
2018-08-09T16:23:16.235Z,100250.59
2018-08-09T16:28:38.946Z,100241.19
2018-08-09T16:31:09.124Z,100238.02
2018-08-09T16:33:41.968Z,100245.11
2018-08-09T16:36:12.105Z,100245.15
2018-08-09T16:38:41.352Z,100247.45
2018-08-09T16:41:13.444Z,100243.87
2018-08-09T16:43:43.684Z,100238.34
2018-08-09T16:46:13.669Z,100226.05
2018-08-09T16:48:43.423Z,100219.47
2018-08-09T16:51:12.318Z,100219.04
2018-08-09T16:53:42.555Z,100221.02
2018-08-09T16:56:11.474Z,100217.16
2018-08-09T16:58:40.352Z,100223.50
2018-08-09T17:01:10.624Z,100237.83
2018-08-09T17:03:39.542Z,100300.25
2018-08-09T17:06:08.567Z,100339.97
2018-08-09T17:08:37.592Z,100363.34
2018-08-09T17:11:06.465Z,100385.52
2018-08-09T17:13:36.972Z,100407.13
2018-08-09T17:16:05.852Z,100350.73
2018-08-09T17:18:34.825Z,100383.14
2018-08-09T17:21:03.878Z,100438.38
2018-08-09T17:23:32.907Z,100449.97
2018-08-09T17:26:01.785Z,100465.28
2018-08-09T17:28:30.897Z,100494.13
2018-08-09T17:30:59.949Z,100470.40
2018-08-09T17:33:29.014Z,100433.29
2018-08-09T17:35:57.962Z,100417.95
2018-08-09T17:38:26.876Z,100433.55
2018-08-09T17:40:55.897Z,100440.77
2018-08-09T17:43:25.032Z,100449.28
2018-08-09T17:45:56.118Z,100441.94
2018-08-09T17:48:27.350Z,100439.97
2018-08-09T17:50:56.448Z,100416.94
2018-08-09T17:53:25.439Z,100415.82
2018-08-09T17:55:54.421Z,100427.06
2018-08-09T17:58:23.400Z,100444.39
2018-08-09T18:00:52.423Z,100455.66
2018-08-09T18:03:22.684Z,100461.59
2018-08-09T18:05:52.749Z,100461.64
2018-08-09T18:08:21.734Z,100454.51
2018-08-09T18:10:50.726Z,100429.98
2018-08-09T18:13:19.846Z,100448.48
2018-08-09T18:15:48.925Z,100447.15
2018-08-09T18:18:20.853Z,100454.11
2018-08-09T18:20:49.746Z,100441.66
2018-08-09T18:23:20.830Z,100426.20
2018-08-09T18:25:51.851Z,100413.04
2018-08-09T18:28:21.968Z,100417.05
2018-08-09T18:30:50.960Z,100413.41
2018-08-09T18:33:21.179Z,100410.20
2018-08-09T18:35:50.752Z,100419.70
2018-08-09T18:38:20.401Z,100409.61
2018-08-09T18:40:52.995Z,100410.06
2018-08-09T18:43:22.342Z,100411.25
2018-08-09T18:45:52.259Z,100404.44
2018-08-09T18:48:21.952Z,100396.64
2018-08-09T18:50:53.695Z,100381.66
2018-08-09T18:53:23.508Z,100381.70
2018-08-09T18:55:52.411Z,100383.75
2018-08-09T18:58:23.557Z,100373.63
2018-08-09T19:00:52.454Z,100366.30
2018-08-09T19:03:26.483Z,100356.92
2018-08-09T19:05:59.046Z,100345.75
2018-08-09T19:08:32.562Z,100346.64
2018-08-09T19:11:02.666Z,100347.30
2018-08-09T19:13:32.834Z,100351.95
2018-08-09T19:16:02.720Z,100360.33
2018-08-09T19:18:36.653Z,100359.92
2018-08-09T19:21:06.290Z,100362.96
2018-08-09T19:23:35.161Z,100363.78
2018-08-09T19:26:07.629Z,100372.50
2018-08-09T19:28:42.380Z,100380.02
2018-08-09T19:31:24.394Z,100377.78
2018-08-09T19:34:03.219Z,100365.78
2018-08-09T19:36:43.046Z,100368.81
2018-08-09T19:39:20.235Z,100379.09
2018-08-09T19:41:53.505Z,100368.56
2018-08-09T19:44:26.031Z,100370.58
2018-08-09T19:46:55.834Z,100373.73
2018-08-09T19:49:30.407Z,100377.58
2018-08-09T19:52:11.370Z,100387.97
2018-08-09T19:54:48.157Z,100385.42
2018-08-09T19:57:24.193Z,100391.83
2018-08-09T20:03:37.897Z,100390.10
2018-08-09T20:06:15.085Z,100397.34
2018-08-09T20:08:46.189Z,100402.87
2018-08-09T20:11:22.470Z,100397.81
2018-08-09T20:13:59.408Z,100398.44
2018-08-09T20:16:28.425Z,100392.29
2018-08-09T20:18:57.382Z,100396.56
2018-08-09T20:21:26.693Z,100397.44
2018-08-09T20:23:55.652Z,100399.54
2018-08-09T20:26:24.538Z,100399.69
2018-08-09T20:28:53.532Z,100394.97
2018-08-09T20:31:22.458Z,100400.55
2018-08-09T20:33:51.422Z,100406.42
2018-08-09T20:36:20.425Z,100413.87
2018-08-09T20:38:49.680Z,100407.66
2018-08-09T20:41:18.840Z,100411.09
2018-08-09T20:43:48.587Z,100418.32
2018-08-09T20:46:17.899Z,100438.02
2018-08-09T20:48:46.789Z,100443.45
2018-08-09T20:51:16.316Z,100447.11
2018-08-09T20:53:45.241Z,100443.73
2018-08-09T20:56:14.257Z,100436.46
2018-08-09T20:58:43.809Z,100437.28
2018-08-09T21:01:14.029Z,100443.09
2018-08-09T21:03:42.955Z,100438.20
2018-08-09T21:06:13.068Z,100444.18
2018-08-09T21:08:42.205Z,100448.25
2018-08-09T21:11:11.207Z,100453.97
2018-08-09T21:13:40.251Z,100454.33
2018-08-09T21:16:09.159Z,100448.48
2018-08-09T21:18:38.684Z,100457.44
2018-08-09T21:21:07.678Z,100457.94
2018-08-09T21:23:36.753Z,100447.39
2018-08-09T21:26:05.778Z,100447.39
2018-08-09T21:28:35.941Z,100454.32
2018-08-09T21:31:04.836Z,100443.69
2018-08-09T21:33:33.795Z,100440.98
2018-08-09T21:36:02.763Z,100442.45
2018-08-09T21:38:31.640Z,100452.23
2018-08-09T21:41:00.607Z,100462.73
2018-08-09T21:43:29.566Z,100461.88
2018-08-09T21:45:58.449Z,100470.35
2018-08-09T21:48:27.422Z,100478.60
2018-08-09T21:50:56.333Z,100485.78
2018-08-09T21:53:25.774Z,100491.60
2018-08-09T21:55:54.696Z,100494.44
2018-08-09T21:58:23.699Z,100493.09
2018-08-09T22:00:58.411Z,100495.89
2018-08-09T22:03:29.965Z,100498.76
2018-08-09T22:06:04.274Z,100502.52
2018-08-09T22:08:40.917Z,100503.99
2018-08-09T22:11:17.210Z,100514.78
2018-08-09T22:13:51.632Z,100518.42
2018-08-09T22:17:23.484Z,100524.91
2018-08-09T22:19:57.856Z,100530.27
2018-08-09T22:22:29.101Z,100527.96
2018-08-09T22:25:00.402Z,100525.42
2018-08-09T22:27:35.774Z,100519.55
2018-08-09T22:30:12.238Z,100519.36
2018-08-09T22:32:43.586Z,100521.06
2018-08-09T22:35:19.003Z,100525.75
2018-08-09T22:37:50.876Z,100531.55
2018-08-09T22:40:24.852Z,100532.97
2018-08-09T22:43:06.192Z,100533.94
2018-08-09T22:45:41.343Z,100532.58
2018-08-09T22:48:16.188Z,100543.36
2018-08-09T22:50:45.738Z,100559.30
2018-08-09T22:53:15.462Z,100552.94
2018-08-09T22:55:44.576Z,100566.37
2018-08-09T22:58:13.540Z,100558.59
2018-08-09T23:00:42.500Z,100557.34
2018-08-09T23:03:12.626Z,100567.58
2018-08-09T23:05:41.636Z,100573.75
2018-08-09T23:08:12.056Z,100575.69
2018-08-09T23:10:41.824Z,100574.78
2018-08-09T23:15:40.005Z,100585.02
2018-08-09T23:18:09.298Z,100585.06
2018-08-09T23:20:38.447Z,100591.41
2018-08-09T23:23:07.415Z,100591.18
2018-08-09T23:25:36.311Z,100596.75
2018-08-09T23:28:05.685Z,100594.63
2018-08-09T23:30:35.715Z,100597.27
2018-08-09T23:33:04.652Z,100599.31
2018-08-09T23:35:33.847Z,100621.38
2018-08-09T23:38:02.904Z,100626.69
2018-08-09T23:40:31.776Z,100627.20
2018-08-09T23:43:00.855Z,100631.75
2018-08-09T23:45:29.759Z,100623.28
2018-08-09T23:47:58.666Z,100624.21
2018-08-09T23:50:27.758Z,100623.22
2018-08-09T23:52:56.667Z,100630.55
2018-08-09T23:55:25.608Z,100625.34
2018-08-09T23:57:54.563Z,100623.84
